createdAt,value
2023-06-19T00:00:58.314Z,44.67
2023-06-19T00:01:58.300Z,44.73
2023-06-19T00:02:58.462Z,44.45
2023-06-19T00:03:58.547Z,44.95
2023-06-19T00:04:58.516Z,44.78
2023-06-19T00:05:58.611Z,45.02
2023-06-19T00:06:58.753Z,44.82
2023-06-19T00:07:58.778Z,44.77
2023-06-19T00:08:58.866Z,44.57
2023-06-19T00:09:58.976Z,44.45
2023-06-19T00:10:58.997Z,44.58
2023-06-19T00:11:59.109Z,45.00
2023-06-19T00:12:59.188Z,44.80
2023-06-19T00:13:59.842Z,44.63
2023-06-19T00:14:59.401Z,44.70
2023-06-19T00:15:59.485Z,45.25
2023-06-19T00:16:59.549Z,44.85
2023-06-19T00:17:59.827Z,44.71
2023-06-19T00:18:59.696Z,44.96
2023-06-19T00:19:59.849Z,44.64
2023-06-19T00:20:59.921Z,44.80
2023-06-19T00:21:59.980Z,44.84
2023-06-19T00:23:00.049Z,44.72
2023-06-19T00:24:00.140Z,44.67
2023-06-19T00:25:00.277Z,44.74
2023-06-19T00:26:00.275Z,44.98
2023-06-19T00:27:00.360Z,45.13
2023-06-19T00:28:00.446Z,45.13
2023-06-19T00:29:00.506Z,45.12
2023-06-19T00:30:00.577Z,45.31
2023-06-19T00:31:01.332Z,44.91
2023-06-19T00:32:00.855Z,45.07
2023-06-19T00:33:00.931Z,45.87
2023-06-19T00:34:00.999Z,45.87
2023-06-19T00:35:01.107Z,45.76
2023-06-19T00:36:01.180Z,45.54
2023-06-19T00:37:01.292Z,45.80
2023-06-19T00:38:01.366Z,45.60
2023-06-19T00:39:01.467Z,45.83
2023-06-19T00:40:01.555Z,45.36
2023-06-19T00:41:01.622Z,45.30
2023-06-19T00:42:01.841Z,45.42
2023-06-19T00:43:01.860Z,45.92
2023-06-19T00:44:01.952Z,45.83
2023-06-19T00:45:02.042Z,45.65
2023-06-19T00:46:02.195Z,45.68
2023-06-19T00:47:02.230Z,45.58
2023-06-19T00:48:02.466Z,45.63
2023-06-19T00:49:02.401Z,45.37
2023-06-19T00:50:02.526Z,45.27
2023-06-19T00:51:02.600Z,45.21
2023-06-19T00:52:02.696Z,45.15
2023-06-19T00:53:02.796Z,44.86
2023-06-19T00:54:02.892Z,45.11
2023-06-19T00:55:02.993Z,45.23
2023-06-19T00:56:03.095Z,45.66
2023-06-19T00:57:03.204Z,45.40
2023-06-19T00:58:03.424Z,45.44
2023-06-19T00:59:03.402Z,45.39
2023-06-19T01:00:03.504Z,45.06
2023-06-19T01:01:08.693Z,45.06
2023-06-19T01:02:04.704Z,45.27
2023-06-19T01:03:03.766Z,45.35
2023-06-19T01:04:03.932Z,45.47
2023-06-19T01:05:03.851Z,45.33
2023-06-19T01:06:03.910Z,45.32
2023-06-19T01:07:03.963Z,45.33
2023-06-19T01:08:04.047Z,45.30
2023-06-19T01:09:04.075Z,45.10
2023-06-19T01:10:04.156Z,44.85
2023-06-19T01:11:11.814Z,44.50
2023-06-19T01:12:05.281Z,44.60
2023-06-19T01:13:04.344Z,44.89
2023-06-19T01:14:04.403Z,44.88
2023-06-19T01:15:04.479Z,44.82
2023-06-19T01:16:04.551Z,44.80
2023-06-19T01:17:04.652Z,45.00
2023-06-19T01:18:04.821Z,44.92
2023-06-19T01:19:04.765Z,44.89
2023-06-19T01:20:04.845Z,45.39
2023-06-19T01:21:04.914Z,45.09
2023-06-19T01:22:05.353Z,45.08
2023-06-19T01:23:05.070Z,45.24
2023-06-19T01:24:05.347Z,45.17
2023-06-19T01:25:05.315Z,45.30
2023-06-19T01:26:05.445Z,45.47
2023-06-19T01:27:05.551Z,45.45
2023-06-19T01:28:05.685Z,45.65
2023-06-19T01:29:05.849Z,46.36
2023-06-19T01:30:05.908Z,46.03
2023-06-19T01:31:06.022Z,45.79
2023-06-19T01:32:06.347Z,46.15
2023-06-19T01:33:06.353Z,45.78
2023-06-19T01:34:06.399Z,46.01
2023-06-19T01:35:06.533Z,46.15
2023-06-19T01:36:06.674Z,46.22
2023-06-19T01:37:06.807Z,46.13
2023-06-19T01:38:06.946Z,46.13
2023-06-19T01:39:07.078Z,46.38
2023-06-19T01:40:07.206Z,46.25
2023-06-19T01:41:07.321Z,46.10
2023-06-19T01:42:07.437Z,46.04
2023-06-19T01:43:07.560Z,46.35
2023-06-19T01:44:07.693Z,46.41
2023-06-19T01:45:07.834Z,46.61
2023-06-19T01:46:07.985Z,46.42
2023-06-19T01:47:08.051Z,46.28
2023-06-19T01:48:08.206Z,46.50
2023-06-19T01:49:08.299Z,46.60
2023-06-19T01:50:09.367Z,46.52
2023-06-19T01:51:08.616Z,46.49
2023-06-19T01:52:08.856Z,46.44
2023-06-19T01:53:08.769Z,46.31
2023-06-19T01:54:08.874Z,46.21
2023-06-19T01:55:08.981Z,46.17
2023-06-19T01:56:09.093Z,46.11
2023-06-19T01:57:09.214Z,46.33
2023-06-19T01:58:09.324Z,46.47
2023-06-19T01:59:09.439Z,46.43
2023-06-19T02:00:09.572Z,46.25
2023-06-19T02:01:09.679Z,46.29
2023-06-19T02:02:09.839Z,46.32
2023-06-19T02:03:10.049Z,46.28
2023-06-19T02:04:10.073Z,46.20
2023-06-19T02:05:10.193Z,46.35
2023-06-19T02:06:10.319Z,46.45
2023-06-19T02:07:10.471Z,46.31
2023-06-19T02:08:10.585Z,47.01
2023-06-19T02:09:11.365Z,46.69
2023-06-19T02:10:10.910Z,46.62
2023-06-19T02:11:10.980Z,46.48
2023-06-19T02:12:11.117Z,46.53
2023-06-19T02:13:11.257Z,46.54
2023-06-19T02:14:11.374Z,46.48
2023-06-19T02:15:11.581Z,46.60
2023-06-19T02:16:11.673Z,46.44
2023-06-19T02:17:11.769Z,47.66
2023-06-19T02:18:11.885Z,46.95
2023-06-19T02:19:12.034Z,47.23
2023-06-19T02:20:12.192Z,47.01
2023-06-19T02:21:12.331Z,46.95
2023-06-19T02:22:12.477Z,46.95
2023-06-19T02:23:12.628Z,47.02
2023-06-19T02:24:12.784Z,46.88
2023-06-19T02:25:12.905Z,46.92
2023-06-19T02:26:13.042Z,46.92
2023-06-19T02:27:13.186Z,46.75
2023-06-19T02:28:13.330Z,46.74
2023-06-19T02:29:13.516Z,46.69
2023-06-19T02:30:13.609Z,46.80
2023-06-19T02:31:13.740Z,46.70
2023-06-19T02:32:13.879Z,46.82
2023-06-19T02:33:14.000Z,46.67
2023-06-19T02:34:14.134Z,46.54
2023-06-19T02:35:14.260Z,46.39
2023-06-19T02:36:14.385Z,46.19
2023-06-19T02:37:14.531Z,46.16
2023-06-19T02:38:14.655Z,46.57
2023-06-19T02:39:14.848Z,45.61
2023-06-19T02:40:14.945Z,46.53
2023-06-19T02:41:15.068Z,45.99
2023-06-19T02:42:15.208Z,45.74
2023-06-19T02:43:15.331Z,45.88
2023-06-19T02:44:15.453Z,45.98
2023-06-19T02:45:15.581Z,45.81
2023-06-19T02:46:15.739Z,45.68
2023-06-19T02:47:15.813Z,45.66
2023-06-19T02:48:15.926Z,45.39
2023-06-19T02:49:16.044Z,45.21
2023-06-19T02:50:16.154Z,45.19
2023-06-19T02:51:16.250Z,45.01
2023-06-19T02:52:16.356Z,44.45
2023-06-19T02:53:16.454Z,45.48
2023-06-19T02:54:16.549Z,45.35
2023-06-19T02:55:16.671Z,45.19
2023-06-19T02:56:16.782Z,44.94
2023-06-19T02:57:16.904Z,45.38
2023-06-19T02:58:17.025Z,45.27
2023-06-19T02:59:17.156Z,45.28
2023-06-19T03:00:17.279Z,45.36
2023-06-19T03:01:17.445Z,45.38
2023-06-19T03:02:17.476Z,45.34
2023-06-19T03:03:17.680Z,45.34
2023-06-19T03:04:17.697Z,45.56
2023-06-19T03:05:17.761Z,45.27
2023-06-19T03:06:17.888Z,46.07
2023-06-19T03:07:18.082Z,45.65
2023-06-19T03:08:18.210Z,45.38
2023-06-19T03:09:18.342Z,46.11
2023-06-19T03:10:18.473Z,45.46
2023-06-19T03:11:18.622Z,45.35
2023-06-19T03:12:18.724Z,45.01
2023-06-19T03:13:18.860Z,45.17
2023-06-19T03:14:19.030Z,45.02
2023-06-19T03:15:19.056Z,44.90
2023-06-19T03:16:19.189Z,44.98
2023-06-19T03:17:19.382Z,45.18
2023-06-19T03:18:19.381Z,44.86
2023-06-19T03:19:19.482Z,45.00
2023-06-19T03:20:19.564Z,45.19
2023-06-19T03:21:20.394Z,45.16
2023-06-19T03:22:19.783Z,45.03
2023-06-19T03:23:20.378Z,44.89
2023-06-19T03:24:20.012Z,45.10
2023-06-19T03:25:20.137Z,45.58
2023-06-19T03:26:20.270Z,46.07
2023-06-19T03:27:20.391Z,46.48
2023-06-19T03:28:20.553Z,46.67
2023-06-19T03:29:20.725Z,46.52
2023-06-19T03:30:20.935Z,46.64
2023-06-19T03:31:21.079Z,46.74
2023-06-19T03:32:21.355Z,46.63
2023-06-19T03:33:21.417Z,46.62
2023-06-19T03:34:21.587Z,46.83
2023-06-19T03:35:21.775Z,46.68
2023-06-19T03:36:21.934Z,47.46
2023-06-19T03:37:22.066Z,47.40
2023-06-19T03:38:22.206Z,47.43
2023-06-19T03:39:22.363Z,47.50
2023-06-19T03:40:22.868Z,47.78
2023-06-19T03:41:22.714Z,47.64
2023-06-19T03:42:22.865Z,47.50
2023-06-19T03:43:23.030Z,47.34
2023-06-19T03:44:23.191Z,47.35
2023-06-19T03:45:23.312Z,47.18
2023-06-19T03:46:23.518Z,47.32
2023-06-19T03:47:23.636Z,47.12
2023-06-19T03:48:23.774Z,47.18
2023-06-19T03:49:23.902Z,47.65
2023-06-19T03:50:26.389Z,47.47
2023-06-19T03:51:24.135Z,47.16
2023-06-19T03:52:24.229Z,47.07
2023-06-19T03:53:24.319Z,46.74
2023-06-19T03:54:24.403Z,46.74
2023-06-19T03:55:24.512Z,46.49
2023-06-19T03:56:24.590Z,46.64
2023-06-19T03:57:24.692Z,47.15
2023-06-19T03:58:24.782Z,47.03
2023-06-19T03:59:24.883Z,46.87
2023-06-19T04:00:25.250Z,47.53
2023-06-19T04:01:25.088Z,47.00
2023-06-19T04:02:25.175Z,46.80
2023-06-19T04:03:25.301Z,46.84
2023-06-19T04:04:25.374Z,46.75
2023-06-19T04:05:25.439Z,46.62
2023-06-19T04:06:25.562Z,46.36
2023-06-19T04:07:25.643Z,46.48
2023-06-19T04:08:25.728Z,46.65
2023-06-19T04:09:25.835Z,46.86
2023-06-19T04:10:26.270Z,46.98
2023-06-19T04:11:26.034Z,46.88
2023-06-19T04:12:26.131Z,46.77
2023-06-19T04:13:26.289Z,46.95
2023-06-19T04:14:26.338Z,47.39
2023-06-19T04:15:26.481Z,47.33
2023-06-19T04:16:27.536Z,47.40
2023-06-19T04:17:26.696Z,47.44
2023-06-19T04:18:26.790Z,47.22
2023-06-19T04:19:27.914Z,46.73
2023-06-19T04:20:27.099Z,46.33
2023-06-19T04:21:27.128Z,46.35
2023-06-19T04:22:27.287Z,46.38
2023-06-19T04:23:27.290Z,46.56
2023-06-19T04:24:27.936Z,46.83
2023-06-19T04:25:27.469Z,46.43
2023-06-19T04:26:27.515Z,45.96
2023-06-19T04:27:27.586Z,46.05
2023-06-19T04:28:27.667Z,46.26
2023-06-19T04:29:27.745Z,46.20
2023-06-19T04:30:27.972Z,46.41
2023-06-19T04:31:27.938Z,46.41
2023-06-19T04:32:28.099Z,46.36
2023-06-19T04:33:29.122Z,46.38
2023-06-19T04:34:28.225Z,46.10
2023-06-19T04:35:28.316Z,46.16
2023-06-19T04:36:28.407Z,46.05
2023-06-19T04:37:28.485Z,46.02
2023-06-19T04:38:28.599Z,45.90
2023-06-19T04:39:28.624Z,45.75
2023-06-19T04:40:28.711Z,45.75
2023-06-19T04:41:28.798Z,44.99
2023-06-19T04:42:28.867Z,45.30
2023-06-19T04:43:30.417Z,45.27
2023-06-19T04:44:29.911Z,45.07
2023-06-19T04:45:29.103Z,45.26
2023-06-19T04:46:29.267Z,45.38
2023-06-19T04:47:39.784Z,45.20
2023-06-19T04:48:30.493Z,45.21
2023-06-19T04:49:29.426Z,45.40
2023-06-19T04:50:29.520Z,45.96
2023-06-19T04:51:29.616Z,45.68
2023-06-19T04:52:29.793Z,45.59
2023-06-19T04:53:29.801Z,45.55
2023-06-19T04:54:29.909Z,45.53
2023-06-19T04:55:29.994Z,45.66
2023-06-19T04:56:30.070Z,45.75
2023-06-19T04:57:30.183Z,45.92
2023-06-19T04:58:30.270Z,45.62
2023-06-19T04:59:30.365Z,45.34
2023-06-19T05:00:30.465Z,46.36
2023-06-19T05:01:30.572Z,46.34
2023-06-19T05:02:30.680Z,47.07
2023-06-19T05:03:30.764Z,46.82
2023-06-19T05:04:30.900Z,46.53
2023-06-19T05:05:30.966Z,47.93
2023-06-19T05:06:31.050Z,47.63
2023-06-19T05:07:31.159Z,47.05
2023-06-19T05:08:31.246Z,47.41
2023-06-19T05:09:31.917Z,47.40
2023-06-19T05:10:31.515Z,47.55
2023-06-19T05:11:31.632Z,47.96
2023-06-19T05:12:31.761Z,47.63
2023-06-19T05:13:31.896Z,47.55
2023-06-19T05:14:32.017Z,47.48
2023-06-19T05:15:32.145Z,47.16
2023-06-19T05:16:34.401Z,46.33
2023-06-19T05:17:32.409Z,46.31
2023-06-19T05:18:32.408Z,46.32
2023-06-19T05:19:32.467Z,46.27
2023-06-19T05:20:32.535Z,46.63
2023-06-19T05:21:32.608Z,46.88
2023-06-19T05:22:32.670Z,47.15
2023-06-19T05:23:32.724Z,47.44
2023-06-19T05:24:32.832Z,47.94
2023-06-19T05:25:32.851Z,47.06
2023-06-19T05:26:32.917Z,46.84
2023-06-19T05:27:32.976Z,46.58
2023-06-19T05:28:33.036Z,46.26
2023-06-19T05:29:33.083Z,46.50
2023-06-19T05:30:33.233Z,46.13
2023-06-19T05:31:33.203Z,45.49
2023-06-19T05:32:33.331Z,45.66
2023-06-19T05:33:33.310Z,45.48
2023-06-19T05:34:33.357Z,45.25
2023-06-19T05:35:33.419Z,45.01
2023-06-19T05:36:33.472Z,44.86
2023-06-19T05:37:33.507Z,45.76
2023-06-19T05:38:33.546Z,45.22
2023-06-19T05:39:33.585Z,45.58
2023-06-19T05:40:33.628Z,45.76
2023-06-19T05:41:33.692Z,45.98
2023-06-19T05:42:33.843Z,45.92
2023-06-19T05:43:34.948Z,46.01
2023-06-19T05:44:34.063Z,46.46
2023-06-19T05:45:34.147Z,46.28
2023-06-19T05:46:34.240Z,46.69
2023-06-19T05:47:34.363Z,46.37
2023-06-19T05:48:34.432Z,45.97
2023-06-19T05:49:34.531Z,45.73
2023-06-19T05:50:34.608Z,45.67
2023-06-19T05:51:34.683Z,45.54
2023-06-19T05:52:34.765Z,45.24
2023-06-19T05:53:34.844Z,45.41
2023-06-19T05:54:34.957Z,46.57
2023-06-19T05:55:35.068Z,46.67
2023-06-19T05:56:35.128Z,46.46
2023-06-19T05:57:35.289Z,46.09
2023-06-19T05:58:35.298Z,46.28
2023-06-19T05:59:35.455Z,46.55
2023-06-19T06:00:35.609Z,46.63
2023-06-19T06:01:35.574Z,45.98
2023-06-19T06:02:35.714Z,46.25
2023-06-19T06:03:35.792Z,44.91
2023-06-19T06:04:36.020Z,44.86
2023-06-19T06:05:35.960Z,44.74
2023-06-19T06:06:36.034Z,44.48
2023-06-19T06:07:36.558Z,44.44
2023-06-19T06:08:36.165Z,44.37
2023-06-19T06:09:36.258Z,44.28
2023-06-19T06:10:36.377Z,44.12
2023-06-19T06:11:36.530Z,43.78
2023-06-19T06:12:36.939Z,43.69
2023-06-19T06:13:36.799Z,43.52
2023-06-19T06:14:37.449Z,43.63
2023-06-19T06:15:36.909Z,43.75
2023-06-19T06:16:37.032Z,43.54
2023-06-19T06:17:37.113Z,43.34
2023-06-19T06:18:37.176Z,43.46
2023-06-19T06:19:37.360Z,43.45
2023-06-19T06:20:37.395Z,43.49
2023-06-19T06:21:37.516Z,43.39
2023-06-19T06:22:37.698Z,43.40
2023-06-19T06:23:37.778Z,43.77
2023-06-19T06:24:37.921Z,43.33
2023-06-19T06:25:37.982Z,43.13
2023-06-19T06:26:38.986Z,42.98
2023-06-19T06:27:38.132Z,43.84
2023-06-19T06:28:38.189Z,43.85
2023-06-19T06:29:39.331Z,43.59
2023-06-19T06:30:38.441Z,43.29
2023-06-19T06:31:38.509Z,43.27
2023-06-19T06:32:38.597Z,43.50
2023-06-19T06:33:38.683Z,43.16
2023-06-19T06:34:38.899Z,42.62
2023-06-19T06:35:39.086Z,42.88
2023-06-19T06:36:46.389Z,42.46
2023-06-19T06:37:40.286Z,42.48
2023-06-19T06:38:39.323Z,42.70
2023-06-19T06:39:39.345Z,42.29
2023-06-19T06:40:39.456Z,42.09
2023-06-19T06:41:39.420Z,42.19
2023-06-19T06:42:39.450Z,41.95
2023-06-19T06:43:39.481Z,41.75
2023-06-19T06:44:39.523Z,41.27
2023-06-19T06:45:39.660Z,41.07
2023-06-19T06:46:39.592Z,41.11
2023-06-19T06:47:39.692Z,41.04
2023-06-19T06:48:39.760Z,41.08
2023-06-19T06:49:39.852Z,41.31
2023-06-19T06:50:39.933Z,41.32
2023-06-19T06:51:40.017Z,41.26
2023-06-19T06:52:40.086Z,41.34
2023-06-19T06:53:40.959Z,40.92
2023-06-19T06:54:40.320Z,41.04
2023-06-19T06:55:40.343Z,40.85
2023-06-19T06:56:40.421Z,40.81
2023-06-19T06:57:40.477Z,40.60
2023-06-19T06:58:40.551Z,40.50
2023-06-19T06:59:40.594Z,40.48
2023-06-19T07:00:40.664Z,40.24
2023-06-19T07:01:40.713Z,40.12
2023-06-19T07:02:40.899Z,40.20
2023-06-19T07:03:40.886Z,40.38
2023-06-19T07:04:40.854Z,40.44
2023-06-19T07:05:40.914Z,40.88
2023-06-19T07:06:40.951Z,40.45
2023-06-19T07:07:41.028Z,40.89
2023-06-19T07:08:41.065Z,40.69
2023-06-19T07:09:41.182Z,40.70
2023-06-19T07:10:41.147Z,40.81
2023-06-19T07:11:41.207Z,40.56
2023-06-19T07:12:41.264Z,40.82
2023-06-19T07:13:41.379Z,40.65
2023-06-19T07:14:41.383Z,40.91
2023-06-19T07:15:41.435Z,40.63
2023-06-19T07:16:41.522Z,40.78
2023-06-19T07:17:41.671Z,40.71
2023-06-19T07:18:41.581Z,41.02
2023-06-19T07:19:41.612Z,41.12
2023-06-19T07:20:41.676Z,40.72
2023-06-19T07:21:41.760Z,40.83
2023-06-19T07:22:41.829Z,41.06
2023-06-19T07:23:42.480Z,41.04
2023-06-19T07:24:42.061Z,40.92
2023-06-19T07:25:41.989Z,40.84
2023-06-19T07:26:42.027Z,40.86
2023-06-19T07:27:42.108Z,40.76
2023-06-19T07:28:42.186Z,40.76
2023-06-19T07:29:42.170Z,40.65
2023-06-19T07:30:42.184Z,40.45
2023-06-19T07:31:42.198Z,40.77
2023-06-19T07:32:42.260Z,40.59
2023-06-19T07:33:42.234Z,40.45
2023-06-19T07:34:42.273Z,40.82
2023-06-19T07:35:42.343Z,40.31
2023-06-19T07:36:42.310Z,40.09
2023-06-19T07:37:42.381Z,40.14
2023-06-19T07:38:42.508Z,39.75
2023-06-19T07:39:42.495Z,39.80
2023-06-19T07:40:42.571Z,39.92
2023-06-19T07:41:42.582Z,39.53
2023-06-19T07:42:44.583Z,39.37
2023-06-19T07:43:42.737Z,39.41
2023-06-19T07:44:42.755Z,39.58
2023-06-19T07:45:42.839Z,39.45
2023-06-19T07:46:42.865Z,39.20
2023-06-19T07:47:42.960Z,39.07
2023-06-19T07:48:42.949Z,39.02
2023-06-19T07:49:43.120Z,38.81
2023-06-19T07:50:43.049Z,38.78
2023-06-19T07:51:43.142Z,38.57
2023-06-19T07:52:43.184Z,38.61
2023-06-19T07:53:43.224Z,38.36
2023-06-19T07:54:43.361Z,38.57
2023-06-19T07:55:43.234Z,38.41
2023-06-19T07:56:43.261Z,38.12
2023-06-19T07:57:43.301Z,37.66
2023-06-19T07:58:43.311Z,37.80
2023-06-19T07:59:43.474Z,38.11
2023-06-19T08:00:43.341Z,38.00
2023-06-19T08:01:43.378Z,37.80
2023-06-19T08:02:43.459Z,38.58
2023-06-19T08:03:43.446Z,38.13
2023-06-19T08:04:43.447Z,37.95
2023-06-19T08:05:43.438Z,37.89
2023-06-19T08:06:43.467Z,37.93
2023-06-19T08:07:43.485Z,37.67
2023-06-19T08:08:43.493Z,37.61
2023-06-19T08:09:43.507Z,38.22
2023-06-19T08:10:43.550Z,37.14
2023-06-19T08:11:43.554Z,37.08
2023-06-19T08:12:43.999Z,36.87
2023-06-19T08:13:43.556Z,36.92
2023-06-19T08:14:43.677Z,36.91
2023-06-19T08:15:44.455Z,36.81
2023-06-19T08:16:43.662Z,36.69
2023-06-19T08:17:43.672Z,36.67
2023-06-19T08:18:43.679Z,36.33
2023-06-19T08:19:43.614Z,36.08
2023-06-19T08:20:43.611Z,36.96
2023-06-19T08:21:43.582Z,37.92
2023-06-19T08:22:43.570Z,37.00
2023-06-19T08:23:43.547Z,36.91
2023-06-19T08:24:43.568Z,36.46
2023-06-19T08:25:43.529Z,35.54
2023-06-19T08:26:43.551Z,34.88
2023-06-19T08:27:43.472Z,34.25
2023-06-19T08:28:43.450Z,34.37
2023-06-19T08:29:43.444Z,34.01
2023-06-19T08:30:43.441Z,34.19
2023-06-19T08:31:43.466Z,35.20
2023-06-19T08:32:43.530Z,37.13
2023-06-19T08:33:44.423Z,36.31
2023-06-19T08:34:43.589Z,35.55
2023-06-19T08:35:43.548Z,35.81
2023-06-19T08:36:44.508Z,35.58
2023-06-19T08:37:43.595Z,35.28
2023-06-19T08:38:44.418Z,35.28
2023-06-19T08:39:43.636Z,35.05
2023-06-19T08:40:43.658Z,35.09
2023-06-19T08:41:43.759Z,34.74
2023-06-19T08:42:43.710Z,34.07
2023-06-19T08:43:43.712Z,34.02
2023-06-19T08:44:43.719Z,34.74
2023-06-19T08:45:43.784Z,34.92
2023-06-19T08:46:43.783Z,34.98
2023-06-19T08:47:43.790Z,34.58
2023-06-19T08:48:43.786Z,33.55
2023-06-19T08:49:43.817Z,33.17
2023-06-19T08:50:44.770Z,32.90
2023-06-19T08:51:43.754Z,33.23
2023-06-19T08:52:43.725Z,32.95
2023-06-19T08:53:43.710Z,34.03
2023-06-19T08:54:43.684Z,33.91
2023-06-19T08:55:44.015Z,34.31
2023-06-19T08:56:43.637Z,33.77
2023-06-19T08:57:43.615Z,33.02
2023-06-19T08:58:43.562Z,33.86
2023-06-19T08:59:43.564Z,33.78
2023-06-19T09:00:43.573Z,33.49
2023-06-19T09:01:43.570Z,34.08
2023-06-19T09:02:43.675Z,31.76
2023-06-19T09:03:43.676Z,32.77
2023-06-19T09:04:43.613Z,33.96
2023-06-19T09:05:46.772Z,32.90
2023-06-19T09:06:43.652Z,32.65
2023-06-19T09:07:43.538Z,32.44
2023-06-19T09:08:43.491Z,32.50
2023-06-19T09:09:43.449Z,31.87
2023-06-19T09:10:43.401Z,31.67
2023-06-19T09:11:43.351Z,32.03
2023-06-19T09:12:43.387Z,33.48
2023-06-19T09:13:43.269Z,32.99
2023-06-19T09:14:43.224Z,33.25
2023-06-19T09:15:43.172Z,32.99
2023-06-19T09:16:43.140Z,32.86
2023-06-19T09:17:43.150Z,34.23
2023-06-19T09:18:43.059Z,33.68
2023-06-19T09:19:43.004Z,33.09
2023-06-19T09:20:43.026Z,32.40
2023-06-19T09:21:44.021Z,33.17
2023-06-19T09:22:42.859Z,32.82
2023-06-19T09:23:42.822Z,32.86
2023-06-19T09:24:42.916Z,32.61
2023-06-19T09:25:42.920Z,33.44
2023-06-19T09:26:42.726Z,32.82
2023-06-19T09:27:42.757Z,32.74
2023-06-19T09:28:42.802Z,32.24
2023-06-19T09:29:42.827Z,32.39
2023-06-19T09:30:42.805Z,32.00
2023-06-19T09:31:42.812Z,31.42
2023-06-19T09:32:42.880Z,31.47
2023-06-19T09:33:42.861Z,32.14
2023-06-19T09:34:42.726Z,31.25
2023-06-19T09:35:42.690Z,31.51
2023-06-19T09:36:42.668Z,31.65
2023-06-19T09:37:42.677Z,32.90
2023-06-19T09:38:42.636Z,31.52
2023-06-19T09:39:42.596Z,31.28
2023-06-19T09:40:42.552Z,30.79
2023-06-19T09:41:42.677Z,29.66
2023-06-19T09:42:42.491Z,31.56
2023-06-19T09:43:42.469Z,32.15
2023-06-19T09:44:46.103Z,31.47
2023-06-19T09:45:43.045Z,31.54
2023-06-19T09:46:42.331Z,30.53
2023-06-19T09:47:42.324Z,30.73
2023-06-19T09:48:42.178Z,30.61
2023-06-19T09:49:42.109Z,32.66
2023-06-19T09:50:42.043Z,31.69
2023-06-19T09:51:41.974Z,31.09
2023-06-19T09:52:41.909Z,30.32
2023-06-19T09:53:41.890Z,31.31
2023-06-19T09:54:41.770Z,31.41
2023-06-19T09:55:41.722Z,31.34
2023-06-19T09:56:41.661Z,31.42
2023-06-19T09:57:41.623Z,31.25
2023-06-19T09:58:41.535Z,31.40
2023-06-19T09:59:41.502Z,30.49
2023-06-19T10:00:41.417Z,32.36
2023-06-19T10:01:41.339Z,31.61
2023-06-19T10:02:41.354Z,31.30
2023-06-19T10:03:41.300Z,31.13
2023-06-19T10:04:41.159Z,30.24
2023-06-19T10:05:41.095Z,30.11
2023-06-19T10:06:41.030Z,31.36
2023-06-19T10:07:40.983Z,31.49
2023-06-19T10:08:40.922Z,30.75
2023-06-19T10:09:40.988Z,31.37
2023-06-19T10:10:40.762Z,31.06
2023-06-19T10:11:40.686Z,30.80
2023-06-19T10:12:40.616Z,30.28
2023-06-19T10:13:40.585Z,30.38
2023-06-19T10:14:40.480Z,29.73
2023-06-19T10:15:40.485Z,30.73
2023-06-19T10:16:40.405Z,31.21
2023-06-19T10:17:40.277Z,29.80
2023-06-19T10:18:40.157Z,29.95
2023-06-19T10:19:40.078Z,30.37
2023-06-19T10:20:46.371Z,30.72
2023-06-19T10:21:40.994Z,29.90
2023-06-19T10:22:39.884Z,29.97
2023-06-19T10:23:39.882Z,30.16
2023-06-19T10:24:39.843Z,30.58
2023-06-19T10:25:39.683Z,30.15
2023-06-19T10:26:39.591Z,30.35
2023-06-19T10:27:39.536Z,30.23
2023-06-19T10:28:39.437Z,30.08
2023-06-19T10:29:39.424Z,30.59
2023-06-19T10:30:39.324Z,30.55
2023-06-19T10:31:39.188Z,30.08
2023-06-19T10:32:39.125Z,30.19
2023-06-19T10:33:39.016Z,29.82
2023-06-19T10:34:39.573Z,29.27
2023-06-19T10:35:38.842Z,29.43
2023-06-19T10:36:38.758Z,29.09
2023-06-19T10:37:38.753Z,29.39
2023-06-19T10:38:38.634Z,29.32
2023-06-19T10:39:38.574Z,28.16
2023-06-19T10:40:38.553Z,27.70
2023-06-19T10:41:38.524Z,29.17
2023-06-19T10:42:38.484Z,28.94
2023-06-19T10:43:38.981Z,28.67
2023-06-19T10:44:38.442Z,29.00
2023-06-19T10:45:38.453Z,29.08
2023-06-19T10:46:38.413Z,29.30
2023-06-19T10:47:38.353Z,28.28
2023-06-19T10:48:38.445Z,27.41
2023-06-19T10:49:38.314Z,28.37
2023-06-19T10:50:38.257Z,27.16
2023-06-19T10:51:38.219Z,26.18
2023-06-19T10:52:38.274Z,26.17
2023-06-19T10:53:38.146Z,28.13
2023-06-19T10:54:38.108Z,28.66
2023-06-19T10:55:38.057Z,28.21
2023-06-19T10:56:38.019Z,27.68
2023-06-19T10:57:38.008Z,27.44
2023-06-19T10:58:37.910Z,28.36
2023-06-19T10:59:37.850Z,28.48
2023-06-19T11:00:37.791Z,27.79
2023-06-19T11:01:37.819Z,27.72
2023-06-19T11:02:37.839Z,25.47
2023-06-19T11:03:37.712Z,25.47
2023-06-19T11:04:37.648Z,25.57
2023-06-19T11:05:37.621Z,26.07
2023-06-19T11:06:37.584Z,27.56
2023-06-19T11:07:37.525Z,26.91
2023-06-19T11:08:37.502Z,25.52
2023-06-19T11:09:37.471Z,25.62
2023-06-19T11:10:37.432Z,26.84
2023-06-19T11:11:37.385Z,27.77
2023-06-19T11:12:37.360Z,27.31
2023-06-19T11:13:37.323Z,27.75
2023-06-19T11:14:37.309Z,26.98
2023-06-19T11:15:37.280Z,27.17
2023-06-19T11:16:37.277Z,27.61
2023-06-19T11:17:37.215Z,26.88
2023-06-19T11:18:37.148Z,26.85
2023-06-19T11:19:37.113Z,27.53
2023-06-19T11:20:37.129Z,27.73
2023-06-19T11:21:37.025Z,27.04
2023-06-19T11:22:36.991Z,27.05
2023-06-19T11:23:37.048Z,26.73
2023-06-19T11:24:36.982Z,26.26
2023-06-19T11:25:36.839Z,25.91
2023-06-19T11:26:36.792Z,26.91
2023-06-19T11:27:36.858Z,27.66
2023-06-19T11:28:37.581Z,27.12
2023-06-19T11:29:36.661Z,27.27
2023-06-19T11:30:37.594Z,27.31
2023-06-19T11:31:36.493Z,26.81
2023-06-19T11:32:36.471Z,27.26
2023-06-19T11:33:36.329Z,27.18
2023-06-19T11:34:36.227Z,27.91
2023-06-19T11:35:36.145Z,27.29
2023-06-19T11:36:36.071Z,28.56
2023-06-19T11:37:36.009Z,27.33
2023-06-19T11:38:35.909Z,27.04
2023-06-19T11:39:35.832Z,26.97
2023-06-19T11:40:35.776Z,26.58
2023-06-19T11:41:35.755Z,27.39
2023-06-19T11:42:35.744Z,26.57
2023-06-19T11:43:35.691Z,26.58
2023-06-19T11:44:36.814Z,29.00
2023-06-19T11:45:35.584Z,28.61
2023-06-19T11:46:35.569Z,27.00
2023-06-19T11:47:35.511Z,27.24
2023-06-19T11:48:35.422Z,26.51
2023-06-19T11:49:35.353Z,26.13
2023-06-19T11:50:35.288Z,25.58
2023-06-19T11:51:35.149Z,24.84
2023-06-19T11:52:35.101Z,24.40
2023-06-19T11:53:35.011Z,24.87
2023-06-19T11:54:35.172Z,26.02
2023-06-19T11:55:36.188Z,26.27
2023-06-19T11:56:35.225Z,25.74
2023-06-19T11:57:35.130Z,23.68
2023-06-19T11:58:35.033Z,23.80
2023-06-19T11:59:34.936Z,23.06
2023-06-19T12:00:34.849Z,25.49
2023-06-19T12:01:34.726Z,24.83
2023-06-19T12:02:35.215Z,24.13
2023-06-19T12:03:34.636Z,23.95
2023-06-19T12:04:35.166Z,24.50
2023-06-19T12:05:34.428Z,24.16
2023-06-19T12:06:34.373Z,24.86
2023-06-19T12:07:34.331Z,25.18
2023-06-19T12:08:34.281Z,25.25
2023-06-19T12:09:34.242Z,25.57
2023-06-19T12:10:34.155Z,25.45
2023-06-19T12:11:34.107Z,24.28
2023-06-19T12:12:34.033Z,25.43
2023-06-19T12:13:33.973Z,24.11
2023-06-19T12:14:33.918Z,24.59
2023-06-19T12:15:35.424Z,24.70
2023-06-19T12:16:33.763Z,24.82
2023-06-19T12:17:33.646Z,24.41
2023-06-19T12:18:33.503Z,24.12
2023-06-19T12:19:33.436Z,24.62
2023-06-19T12:20:33.292Z,24.92
2023-06-19T12:21:38.637Z,24.81
2023-06-19T12:22:34.055Z,25.55
2023-06-19T12:23:32.942Z,25.68
2023-06-19T12:24:32.915Z,25.41
2023-06-19T12:25:32.752Z,24.11
2023-06-19T12:26:32.604Z,24.21
2023-06-19T12:27:32.639Z,24.49
2023-06-19T12:28:32.401Z,25.11
2023-06-19T12:29:32.298Z,25.03
2023-06-19T12:30:32.206Z,25.08
2023-06-19T12:31:32.067Z,24.94
2023-06-19T12:32:32.113Z,25.62
2023-06-19T12:33:31.872Z,25.52
2023-06-19T12:34:32.106Z,24.30
2023-06-19T12:35:31.697Z,24.87
2023-06-19T12:36:31.549Z,26.43
2023-06-19T12:37:31.453Z,26.44
2023-06-19T12:38:31.358Z,26.55
2023-06-19T12:39:31.313Z,26.79
2023-06-19T12:40:31.148Z,26.61
2023-06-19T12:41:31.057Z,25.99
2023-06-19T12:42:30.950Z,26.50
2023-06-19T12:43:30.958Z,26.00
2023-06-19T12:44:30.801Z,26.00
2023-06-19T12:45:30.769Z,24.98
2023-06-19T12:46:30.787Z,25.29
2023-06-19T12:47:30.766Z,25.53
2023-06-19T12:48:30.551Z,24.88
2023-06-19T12:49:30.495Z,25.37
2023-06-19T12:50:30.383Z,25.20
2023-06-19T12:51:30.378Z,25.24
2023-06-19T12:52:30.577Z,25.55
2023-06-19T12:53:30.749Z,25.33